createdAt,value
2019-04-23T00:02:39.347Z,6.43
2019-04-23T00:12:49.483Z,6.70
2019-04-23T00:17:48.911Z,7.20
2019-04-23T00:23:11.500Z,7.83
2019-04-23T00:28:16.109Z,7.43
2019-04-23T00:33:18.856Z,8.50
2019-04-23T00:48:39.611Z,8.27
2019-04-23T00:53:32.711Z,9.10
2019-04-23T00:58:41.622Z,9.97
2019-04-23T01:03:39.427Z,9.13
2019-04-23T01:08:52.257Z,9.80
2019-04-23T01:14:08.323Z,9.43
2019-04-23T01:18:58.170Z,9.83
2019-04-23T01:24:12.004Z,9.23
2019-04-23T01:29:37.830Z,9.83
2019-04-23T01:34:38.970Z,9.10
2019-04-23T01:39:45.524Z,10.23
2019-04-23T01:45:01.365Z,10.90
2019-04-23T01:50:01.946Z,9.77
2019-04-23T01:55:01.749Z,10.17
2019-04-23T02:00:14.590Z,10.33
2019-04-23T02:05:15.670Z,10.60
2019-04-23T02:10:21.247Z,10.23
2019-04-23T02:15:18.073Z,10.63
2019-04-23T02:35:55.734Z,10.70
2019-04-23T02:41:04.777Z,10.40
2019-04-23T02:46:04.547Z,10.47
2019-04-23T02:50:57.811Z,10.17
2019-04-23T03:01:19.358Z,9.03
2019-04-23T03:06:16.332Z,9.27
2019-04-23T03:16:38.163Z,7.73
2019-04-23T03:22:00.298Z,10.10
2019-04-23T03:27:25.286Z,9.37
2019-04-23T03:37:32.218Z,9.07
2019-04-23T03:42:17.722Z,10.70
2019-04-23T03:47:24.238Z,9.20
2019-04-23T04:03:00.254Z,10.53
2019-04-23T04:08:00.466Z,10.23
2019-04-23T04:18:11.801Z,9.43
2019-04-23T04:23:13.434Z,8.20
2019-04-23T04:28:12.069Z,8.03
2019-04-23T04:33:29.945Z,9.43
2019-04-23T04:58:46.866Z,8.10
2019-04-23T05:04:07.432Z,8.37
2019-04-23T05:08:58.546Z,7.93
2019-04-23T05:19:18.320Z,8.13
2019-04-23T05:34:27.433Z,7.90
2019-04-23T05:39:35.172Z,8.70
2019-04-23T05:44:29.635Z,8.43
2019-04-23T05:49:47.434Z,8.70
2019-04-23T05:54:37.395Z,8.03
2019-04-23T05:59:37.942Z,7.80
2019-04-23T06:04:42.751Z,8.77
2019-04-23T06:09:48.137Z,7.83
2019-04-23T06:14:55.609Z,8.77
2019-04-23T06:20:03.174Z,8.30
2019-04-23T06:25:35.910Z,8.30
2019-04-23T06:30:01.232Z,8.37
2019-04-23T06:35:12.039Z,8.40
2019-04-23T06:40:15.817Z,9.13
2019-04-23T06:45:21.045Z,8.83
2019-04-23T06:50:27.131Z,8.30
2019-04-23T06:55:34.243Z,8.33
2019-04-23T07:00:41.874Z,8.53
2019-04-23T07:06:11.475Z,8.40
2019-04-23T07:11:18.801Z,8.03
2019-04-23T07:16:12.890Z,7.90
2019-04-23T07:21:17.922Z,8.40
2019-04-23T07:26:30.122Z,8.87
2019-04-23T07:31:29.117Z,7.33
2019-04-23T07:36:35.686Z,8.47
2019-04-23T07:42:02.916Z,8.00
2019-04-23T07:47:21.814Z,7.67
2019-04-23T07:52:24.290Z,7.93
2019-04-23T07:57:26.812Z,7.60
2019-04-23T08:02:31.772Z,8.53
2019-04-23T08:07:36.820Z,7.33
2019-04-23T08:12:43.758Z,7.40
2019-04-23T08:17:42.774Z,7.13
2019-04-23T08:22:45.498Z,7.60
2019-04-23T08:27:55.521Z,8.10
2019-04-23T08:33:07.355Z,7.77
2019-04-23T08:38:24.579Z,7.80
2019-04-23T08:43:36.608Z,8.30
2019-04-23T08:48:38.357Z,7.73
2019-04-23T08:58:34.010Z,6.97
2019-04-23T09:03:40.837Z,7.60
2019-04-23T09:09:10.461Z,8.83
2019-04-23T09:19:04.602Z,8.87
2019-04-23T09:24:03.936Z,7.40
2019-04-23T09:29:16.065Z,8.57
2019-04-23T09:34:29.863Z,7.93
2019-04-23T09:39:34.663Z,8.17
2019-04-23T09:49:56.855Z,8.57
2019-04-23T10:00:03.236Z,7.43
2019-04-23T10:04:56.801Z,9.10
2019-04-23T10:09:44.597Z,7.37
2019-04-23T10:14:59.317Z,7.00
2019-04-23T10:19:53.000Z,8.27
2019-04-23T10:24:57.154Z,8.50
2019-04-23T10:30:01.597Z,7.70
2019-04-23T10:35:20.946Z,7.50
2019-04-23T10:40:17.751Z,9.10
2019-04-23T10:45:57.201Z,8.40
2019-04-23T11:01:50.154Z,8.87
2019-04-23T11:06:45.110Z,7.00
2019-04-23T11:11:52.455Z,7.50
2019-04-23T11:22:20.193Z,7.10
2019-04-23T11:27:17.764Z,8.43
2019-04-23T11:32:30.634Z,7.67
2019-04-23T11:37:29.946Z,7.50
2019-04-23T11:42:19.402Z,7.40
2019-04-23T11:52:36.411Z,8.10
2019-04-23T11:58:02.683Z,7.70
2019-04-23T12:03:04.159Z,7.73
2019-04-23T12:08:31.338Z,7.50
2019-04-23T12:13:27.085Z,7.87
2019-04-23T12:18:36.611Z,7.83
2019-04-23T12:23:41.304Z,7.87
2019-04-23T12:28:39.857Z,6.80
2019-04-23T12:33:44.806Z,7.30
2019-04-23T12:38:40.717Z,7.37
2019-04-23T12:43:50.552Z,7.30
2019-04-23T12:49:13.093Z,7.67
2019-04-23T12:54:02.744Z,7.10
2019-04-23T12:59:01.736Z,6.63
2019-04-23T13:04:09.977Z,7.47
2019-04-23T13:09:28.869Z,7.30
2019-04-23T13:14:30.695Z,6.83
2019-04-23T13:19:33.057Z,10.70
2019-04-23T13:24:44.073Z,7.60
2019-04-23T13:29:49.911Z,7.33
2019-04-23T13:34:58.869Z,7.33
2019-04-23T13:39:52.904Z,6.97
2019-04-23T13:45:05.535Z,6.47
2019-04-23T13:50:07.722Z,6.77
2019-04-23T13:55:17.276Z,7.17
2019-04-23T14:00:20.564Z,7.37
2019-04-23T14:10:48.283Z,6.80
2019-04-23T14:21:06.012Z,7.77
2019-04-23T14:31:13.147Z,7.20
2019-04-23T14:41:54.245Z,8.17
2019-04-23T14:46:50.397Z,7.73
2019-04-23T14:51:52.952Z,8.47
2019-04-23T14:56:58.895Z,8.20
2019-04-23T15:02:05.561Z,7.73
2019-04-23T15:07:17.014Z,8.87
2019-04-23T15:12:23.213Z,9.67
2019-04-23T15:17:20.587Z,8.63
2019-04-23T15:32:46.832Z,9.00
2019-04-23T15:38:14.275Z,8.70
2019-04-23T15:42:53.799Z,8.93
2019-04-23T15:58:14.500Z,9.57
2019-04-23T16:02:35.562Z,9.20
2019-04-23T16:07:54.684Z,9.27
2019-04-23T16:13:12.983Z,8.90
2019-04-23T16:18:41.174Z,9.30
2019-04-23T16:24:00.933Z,10.87
2019-04-23T16:29:06.630Z,10.60
2019-04-23T16:34:04.750Z,11.53
2019-04-23T16:38:58.556Z,9.83
2019-04-23T16:55:09.018Z,9.87
2019-04-23T17:05:19.642Z,10.20
2019-04-23T17:10:23.354Z,10.03
2019-04-23T17:15:27.504Z,11.63
2019-04-23T17:20:31.255Z,11.47
2019-04-23T17:25:48.346Z,10.47
2019-04-23T17:30:52.374Z,11.00
2019-04-23T17:36:18.244Z,11.80
2019-04-23T17:41:26.699Z,10.70
2019-04-23T17:46:22.015Z,11.60
2019-04-23T17:51:25.132Z,12.00
2019-04-23T18:01:59.250Z,11.03
2019-04-23T18:06:45.823Z,10.90
2019-04-23T18:11:44.835Z,10.93
2019-04-23T18:22:15.527Z,10.50
2019-04-23T18:27:16.953Z,12.43
2019-04-23T18:32:30.188Z,10.77
2019-04-23T18:37:29.613Z,12.27
2019-04-23T18:42:40.383Z,12.40
2019-04-23T18:47:45.735Z,11.70
2019-04-23T18:57:53.415Z,12.70
2019-04-23T19:03:02.663Z,11.70
2019-04-23T19:08:42.462Z,13.43
2019-04-23T19:18:26.661Z,12.70
2019-04-23T19:33:48.303Z,12.40
2019-04-23T19:38:44.132Z,12.40
2019-04-23T19:43:55.942Z,12.57
2019-04-23T19:48:57.986Z,12.60
2019-04-23T19:54:21.983Z,12.30
2019-04-23T19:59:01.802Z,12.13
2019-04-23T20:04:28.780Z,12.10
2019-04-23T20:14:26.392Z,13.30
2019-04-23T20:19:31.616Z,12.03
2019-04-23T20:24:39.679Z,13.07
2019-04-23T20:30:15.524Z,11.93
2019-04-23T20:40:06.726Z,12.47
2019-04-23T20:50:10.208Z,11.93
2019-04-23T20:55:29.350Z,12.80
2019-04-23T21:00:25.785Z,12.10
2019-04-23T21:05:26.137Z,12.27
2019-04-23T21:15:45.741Z,13.20
2019-04-23T21:20:50.096Z,13.13
2019-04-23T21:25:52.688Z,13.23
2019-04-23T21:36:35.523Z,12.63
2019-04-23T21:42:14.498Z,12.90
2019-04-23T21:47:09.105Z,13.07
2019-04-23T21:52:11.590Z,14.30
2019-04-23T21:57:29.727Z,13.00
2019-04-23T22:02:28.766Z,13.47
2019-04-23T22:07:41.093Z,12.53
2019-04-23T22:12:39.499Z,14.30
2019-04-23T22:17:41.221Z,13.63
2019-04-23T22:22:59.977Z,14.10
2019-04-23T22:27:54.252Z,13.23
2019-04-23T22:33:13.571Z,12.80
2019-04-23T22:38:09.556Z,13.90
2019-04-23T22:43:15.050Z,16.40
2019-04-23T22:48:11.874Z,13.80
2019-04-23T22:58:11.447Z,14.33
2019-04-23T23:03:29.443Z,14.00
2019-04-23T23:13:52.255Z,13.07
2019-04-23T23:18:59.884Z,13.47
2019-04-23T23:23:47.691Z,14.10
2019-04-23T23:28:44.591Z,11.60
2019-04-23T23:34:15.668Z,11.93
2019-04-23T23:39:05.567Z,12.50
2019-04-23T23:49:11.395Z,12.50
2019-04-23T23:59:21.145Z,12.90
